Dades de l'estació automàtica Sasseuva (2.226 m)
Resum diari
21:30 TU| Temperatura mitjana | 2.9 °C | |
|---|---|---|
| Temperatura màxima | 5.9 °C | 14:06 TU |
| Temperatura mínima | -0.2 °C | 21:34 TU |
| Humitat relativa mitjana | 87% | |
| Precipitació acumulada | 8.0 mm | |
| Gruix de neu màxim | 29 cm | |
| Ratxa màxima del vent (6 m) | 34.9 km/h - 240º | 0:28 TU |
| Irradiació solar global | 12.8 MJ/m2 | |
El tram horari està expressat en Temps Universal (TU). Cal sumar una hora en horari d'hivern i dues en horari d'estiu per passar a l'hora oficial.
Sasseuva (2.226 m)
| Municipi | Arres |
|---|---|
| Comarca | Val d'Aran |
| Altitud | 2226 m |
| Data alta | 20.09.2001 |
| Estat actual | Operativa |
| Període TU |
TM °C |
TX °C |
TN °C |
HRM % |
PPT mm |
GN cm |
VVM (6 m) km/h |
DVM (6 m) graus |
VVX (6 m) km/h |
RS W/m2 |
|---|---|---|---|---|---|---|---|---|---|---|
| 00:00 - 00:30 | 3.4 | 4.0 | 3.0 | 83 | 0.0 | 29 | 8.3 | 208 | 34.9 | 0 |
| 00:30 - 01:00 | 4.0 | 4.3 | 3.8 | 75 | 0.0 | 29 | 10.1 | 243 | 34.2 | 0 |
| 01:00 - 01:30 | 4.2 | 4.4 | 4.0 | 70 | 0.0 | 29 | 10.1 | 199 | 27.7 | 0 |
| 01:30 - 02:00 | 4.0 | 4.3 | 3.8 | 69 | 0.0 | 29 | 7.6 | 185 | 24.5 | 0 |
| 02:00 - 02:30 | 4.4 | 4.5 | 4.3 | 67 | 0.0 | 29 | 13.0 | 215 | 34.6 | 0 |
| 02:30 - 03:00 | 4.1 | 4.4 | 3.9 | 70 | 0.0 | 29 | 8.6 | 224 | 25.2 | 0 |
| 03:00 - 03:30 | 3.9 | 4.0 | 3.8 | 72 | 0.3 | 29 | 6.8 | 221 | 21.6 | 0 |
| 03:30 - 04:00 | 3.1 | 3.7 | 2.8 | 82 | 0.0 | 29 | 2.5 | 179 | 9.4 | 0 |
| 04:00 - 04:30 | 2.6 | 2.8 | 2.5 | 89 | 0.3 | 29 | 2.9 | 214 | 9.4 | 0 |
| 04:30 - 05:00 | 2.3 | 2.7 | 2.0 | 92 | 0.5 | 29 | 0.7 | 38 | 5.8 | 0 |
| 05:00 - 05:30 | 1.9 | 2.0 | 1.7 | 94 | 0.4 | 29 | 2.2 | 226 | 14.0 | 10 |
| 05:30 - 06:00 | 1.8 | 1.9 | 1.7 | 97 | 0.0 | 29 | 2.9 | 14 | 13.3 | 47 |
| 06:00 - 06:30 | 1.7 | 1.9 | 1.7 | 97 | 0.0 | 29 | 4.0 | 221 | 14.4 | 100 |
| 06:30 - 07:00 | 1.8 | 2.3 | 1.6 | 96 | 0.0 | 29 | 4.0 | 219 | 14.0 | 175 |
| 07:00 - 07:30 | 2.4 | 2.8 | 2.3 | 93 | 0.0 | 29 | 3.2 | 237 | 14.4 | 238 |
| 07:30 - 08:00 | 3.7 | 4.2 | 2.9 | 88 | 0.0 | 28 | 2.2 | 229 | 16.9 | 562 |
| 08:00 - 08:30 | 4.4 | 5.1 | 3.9 | 85 | 0.0 | 27 | 2.2 | 16 | 11.9 | 552 |
| 08:30 - 09:00 | 4.3 | 5.1 | 3.8 | 85 | 0.0 | 27 | 1.8 | 44 | 9.0 | 264 |
| 09:00 - 09:30 | 4.1 | 4.5 | 3.7 | 90 | 0.0 | 28 | 2.2 | 57 | 10.8 | 297 |
| 09:30 - 10:00 | 3.8 | 4.2 | 3.5 | 89 | 0.0 | 27 | 4.3 | 70 | 13.3 | 260 |
| 10:00 - 10:30 | 4.0 | 4.2 | 3.9 | 90 | 0.0 | 26 | 4.7 | 85 | 18.7 | 291 |
| 10:30 - 11:00 | 4.1 | 4.6 | 3.8 | 84 | 0.0 | 26 | 7.2 | 56 | 28.1 | 396 |
| 11:00 - 11:30 | 4.2 | 4.5 | 3.9 | 83 | 0.0 | 27 | 8.3 | 52 | 23.0 | 417 |
| 11:30 - 12:00 | 4.7 | 5.0 | 4.2 | 80 | 0.0 | 26 | 5.4 | 33 | 29.9 | 364 |
| 12:00 - 12:30 | 4.6 | 4.8 | 4.4 | 80 | 0.0 | 26 | 4.3 | 24 | 22.7 | 389 |
| 12:30 - 13:00 | 4.7 | 5.7 | 4.2 | 81 | 0.0 | 25 | 5.0 | 57 | 22.0 | 610 |
| 13:00 - 13:30 | 5.1 | 5.5 | 4.7 | 77 | 0.0 | 25 | 9.7 | 62 | 28.4 | 503 |
| 13:30 - 14:00 | 5.1 | 5.5 | 4.8 | 77 | 0.0 | 26 | 4.7 | 52 | 14.8 | 363 |
| 14:00 - 14:30 | 5.2 | 5.9 | 4.8 | 78 | 0.0 | 25 | 6.8 | 49 | 20.9 | 453 |
| 14:30 - 15:00 | 5.1 | 5.3 | 4.8 | 85 | 0.0 | 25 | 4.0 | 23 | 15.5 | 312 |
| 15:00 - 15:30 | 4.6 | 4.9 | 4.2 | 85 | 0.0 | 25 | 4.0 | 36 | 15.1 | 229 |
| 15:30 - 16:00 | 3.6 | 4.1 | 3.1 | 94 | 0.1 | 24 | 4.0 | 36 | 13.3 | 65 |
| 16:00 - 16:30 | 2.4 | 3.0 | 1.8 | 96 | 3.3 | 25 | 3.2 | 211 | 14.8 | 56 |
| 16:30 - 17:00 | 2.1 | 2.5 | 1.4 | 96 | 0.5 | 25 | 2.5 | 276 | 11.2 | 88 |
| 17:00 - 17:30 | 0.4 | 1.2 | 0.0 | 97 | 1.7 | 25 | 4.7 | 57 | 15.1 | 28 |
| 17:30 - 18:00 | 0.0 | 0.0 | 0.0 | 97 | 0.3 | 25 | 4.3 | 25 | 13.3 | 29 |
| 18:00 - 18:30 | 0.1 | 0.3 | 0.0 | 97 | 0.4 | 26 | 2.9 | 357 | 9.4 | 24 |
| 18:30 - 19:00 | 0.6 | 1.1 | 0.3 | 98 | 0.1 | 26 | 1.1 | 170 | 5.0 | 26 |
| 19:00 - 19:30 | 0.8 | 1.1 | 0.6 | 97 | 0.0 | 26 | 0.4 | 132 | 2.9 | 1 |
| 19:30 - 20:00 | 0.7 | 0.9 | 0.6 | 97 | 0.0 | 26 | 1.1 | 65 | 6.1 | 0 |
| 20:00 - 20:30 | 0.6 | 0.7 | 0.4 | 96 | 0.0 | 26 | 1.1 | 77 | 6.5 | 0 |
| 20:30 - 21:00 | 0.2 | 0.5 | -0.2 | 96 | 0.1 | 26 | 0.4 | 21 | 4.0 | 0 |
| 21:00 - 21:30 | -0.1 | -0.1 | -0.2 | 97 | 0.0 | 26 | 0.4 | 41 | 3.6 | 0 |
| 21:30 - 22:00 | -0.1 | 0.0 | -0.2 | 97 | 0.0 | 26 | 0.7 | 308 | 4.0 | 0 |
| 22:00 - 22:30 | (s/d) | (s/d) | (s/d) | (s/d) | (s/d) | (s/d) | (s/d) | (s/d) | (s/d) | (s/d) |
Les dades en taronja només han passat un control de qualitat automàtic. Resta pendent la seva validació definitiva.